createdAt,value
2022-10-17T00:00:51.524Z,13.88
2022-10-17T00:03:18.930Z,12.13
2022-10-17T00:05:47.865Z,14.05
2022-10-17T00:08:17.005Z,13.15
2022-10-17T00:10:44.494Z,14.00
2022-10-17T00:13:12.445Z,11.63
2022-10-17T00:15:45.047Z,12.73
2022-10-17T00:18:12.604Z,14.45
2022-10-17T00:20:39.898Z,16.98
2022-10-17T00:23:07.137Z,15.35
2022-10-17T00:25:34.302Z,15.07
2022-10-17T00:28:01.327Z,13.45
2022-10-17T00:30:28.483Z,13.55
2022-10-17T00:32:55.705Z,11.98
2022-10-17T00:35:23.095Z,14.13
2022-10-17T00:37:50.267Z,14.50
2022-10-17T00:40:17.714Z,13.57
2022-10-17T00:42:47.143Z,13.13
2022-10-17T00:45:30.559Z,14.65
2022-10-17T00:48:21.179Z,14.88
2022-10-17T00:50:51.288Z,14.77
2022-10-17T00:53:19.023Z,15.20
2022-10-17T00:55:51.167Z,13.98
2022-10-17T00:58:19.108Z,13.98
2022-10-17T01:00:48.730Z,15.73
2022-10-17T01:03:16.656Z,14.30
2022-10-17T01:05:44.094Z,15.35
2022-10-17T01:08:12.616Z,13.65
2022-10-17T01:11:10.665Z,13.38
2022-10-17T01:14:13.462Z,14.50
2022-10-17T01:16:40.888Z,15.20
2022-10-17T01:19:27.883Z,15.05
2022-10-17T01:22:18.520Z,15.95
2022-10-17T01:25:22.208Z,14.65
2022-10-17T01:27:57.162Z,14.60
2022-10-17T01:30:48.956Z,14.57
2022-10-17T01:33:54.913Z,15.30
2022-10-17T01:36:37.213Z,14.05
2022-10-17T01:39:15.396Z,14.40
2022-10-17T01:42:03.734Z,14.48
2022-10-17T01:44:41.632Z,13.93
2022-10-17T01:47:13.965Z,14.10
2022-10-17T01:49:44.291Z,12.00
2022-10-17T01:52:21.217Z,12.77
2022-10-17T01:54:56.314Z,15.90
2022-10-17T01:57:37.759Z,18.40
2022-10-17T02:00:09.342Z,15.45
2022-10-17T02:02:42.748Z,15.25
2022-10-17T02:05:11.078Z,18.35
2022-10-17T02:07:38.305Z,18.27
2022-10-17T02:10:12.738Z,18.58
2022-10-17T02:13:01.237Z,17.58
2022-10-17T02:15:40.804Z,16.67
2022-10-17T02:18:15.272Z,18.07
2022-10-17T02:21:01.091Z,16.42
2022-10-17T02:23:35.064Z,15.60
2022-10-17T02:26:14.434Z,14.27
2022-10-17T02:29:05.314Z,13.80
2022-10-17T02:31:39.847Z,15.38
2022-10-17T02:34:20.133Z,15.63
2022-10-17T02:36:54.256Z,15.32
2022-10-17T02:39:23.862Z,15.32
2022-10-17T02:41:53.039Z,15.10
2022-10-17T02:44:22.194Z,13.95
2022-10-17T02:46:59.945Z,13.73
2022-10-17T02:49:31.985Z,14.57
2022-10-17T02:52:14.909Z,15.52
2022-10-17T02:54:48.123Z,14.50
2022-10-17T02:57:31.362Z,14.38
2022-10-17T03:00:01.216Z,14.65
2022-10-17T03:02:29.513Z,16.25
2022-10-17T03:04:56.994Z,15.35
2022-10-17T03:07:24.100Z,14.18
2022-10-17T03:09:51.243Z,13.88
2022-10-17T03:12:18.424Z,15.00
2022-10-17T03:14:46.112Z,17.08
2022-10-17T03:17:13.237Z,17.27
2022-10-17T03:19:41.314Z,14.88
2022-10-17T03:22:09.465Z,15.07
2022-10-17T03:24:37.485Z,16.27
2022-10-17T03:27:04.998Z,15.02
2022-10-17T03:29:32.213Z,15.55
2022-10-17T03:31:59.423Z,14.65
2022-10-17T03:34:26.577Z,14.40
2022-10-17T03:36:54.799Z,14.02
2022-10-17T03:39:22.398Z,14.63
2022-10-17T03:41:50.014Z,14.38
2022-10-17T03:44:17.116Z,13.10
2022-10-17T03:46:44.628Z,13.80
2022-10-17T03:49:11.973Z,12.98
2022-10-17T03:51:40.036Z,14.25
2022-10-17T03:54:11.884Z,11.98
2022-10-17T03:56:40.024Z,12.52
2022-10-17T03:59:16.000Z,16.00
2022-10-17T04:01:49.888Z,15.20
2022-10-17T04:04:17.517Z,15.90
2022-10-17T04:06:45.051Z,15.82
2022-10-17T04:09:12.396Z,13.93
2022-10-17T04:11:50.571Z,16.88
2022-10-17T04:14:17.847Z,19.05
2022-10-17T04:16:45.023Z,16.88
2022-10-17T04:19:16.748Z,15.95
2022-10-17T04:21:46.836Z,16.60
2022-10-17T04:24:15.661Z,17.50
2022-10-17T04:26:43.161Z,16.83
2022-10-17T04:29:11.323Z,16.60
2022-10-17T04:31:39.850Z,16.60
2022-10-17T04:34:25.440Z,18.33
2022-10-17T04:36:52.593Z,17.92
2022-10-17T04:39:20.320Z,16.35
2022-10-17T04:41:48.198Z,16.10
2022-10-17T04:44:15.732Z,13.23
2022-10-17T04:46:48.973Z,14.77
2022-10-17T04:49:16.390Z,12.93
2022-10-17T04:51:46.892Z,14.88
2022-10-17T04:54:19.916Z,14.88
2022-10-17T04:56:52.055Z,14.70
2022-10-17T04:59:19.623Z,17.38
2022-10-17T05:01:50.395Z,13.85
2022-10-17T05:04:21.101Z,12.90
2022-10-17T05:06:51.353Z,15.23
2022-10-17T05:09:36.803Z,14.02
2022-10-17T05:12:06.758Z,16.50
2022-10-17T05:14:38.156Z,16.40
2022-10-17T05:17:05.681Z,13.70
2022-10-17T05:19:32.954Z,15.68
2022-10-17T05:22:00.506Z,14.43
2022-10-17T05:24:27.563Z,14.02
2022-10-17T05:26:54.817Z,17.27
2022-10-17T05:29:24.011Z,20.67
2022-10-17T05:31:56.702Z,23.17
2022-10-17T05:34:25.295Z,25.27
2022-10-17T05:36:52.476Z,25.63
2022-10-17T05:39:23.575Z,22.60
2022-10-17T05:41:52.896Z,20.90
2022-10-17T05:44:20.603Z,16.17
2022-10-17T05:46:53.826Z,23.98
2022-10-17T05:49:32.551Z,27.15
2022-10-17T05:52:07.785Z,26.42
2022-10-17T05:54:45.885Z,27.08
2022-10-17T05:57:13.275Z,27.83
2022-10-17T05:59:41.634Z,30.95
2022-10-17T06:02:13.787Z,29.08
2022-10-17T06:04:45.834Z,31.63
2022-10-17T06:07:14.486Z,29.45
2022-10-17T06:12:17.081Z,28.15
2022-10-17T06:14:45.448Z,28.20
2022-10-17T06:17:16.252Z,29.02
2022-10-17T06:19:48.010Z,27.70
2022-10-17T06:22:16.116Z,28.42
2022-10-17T06:24:43.687Z,30.55
2022-10-17T06:27:12.255Z,29.58
2022-10-17T06:29:41.355Z,30.90
2022-10-17T06:32:11.299Z,30.25
2022-10-17T06:34:42.482Z,28.23
2022-10-17T06:37:10.602Z,29.05
2022-10-17T06:39:39.879Z,28.77
2022-10-17T06:42:20.679Z,30.48
2022-10-17T06:45:04.175Z,29.52
2022-10-17T06:47:54.277Z,31.95
2022-10-17T06:50:43.106Z,27.58
2022-10-17T06:53:17.131Z,32.10
2022-10-17T06:56:13.562Z,28.70
2022-10-17T07:01:34.907Z,29.63
2022-10-17T07:04:03.866Z,29.15
2022-10-17T07:06:32.263Z,28.90
2022-10-17T07:09:07.108Z,31.10
2022-10-17T07:11:37.366Z,29.27
2022-10-17T07:14:04.566Z,31.73
2022-10-17T07:16:31.667Z,29.50
2022-10-17T07:19:08.535Z,28.45
2022-10-17T07:21:39.261Z,29.88
2022-10-17T07:24:08.913Z,29.55
2022-10-17T07:26:36.424Z,30.00
2022-10-17T07:29:06.623Z,29.45
2022-10-17T07:31:38.232Z,29.55
2022-10-17T07:34:05.617Z,29.42
2022-10-17T07:36:33.155Z,30.27
2022-10-17T07:39:03.301Z,30.05
2022-10-17T07:41:31.689Z,29.98
2022-10-17T07:43:59.397Z,29.70
2022-10-17T07:46:32.535Z,28.40
2022-10-17T07:49:00.216Z,28.52
2022-10-17T07:51:28.176Z,25.40
2022-10-17T07:53:55.268Z,27.60
2022-10-17T07:56:24.954Z,27.73
2022-10-17T07:58:53.442Z,27.98
2022-10-17T08:01:20.731Z,27.17
2022-10-17T08:03:51.034Z,24.48
2022-10-17T08:06:18.803Z,28.45
2022-10-17T08:08:46.604Z,27.10
2022-10-17T08:11:15.025Z,26.65
2022-10-17T08:13:42.641Z,27.75
2022-10-17T08:16:12.805Z,27.95
2022-10-17T08:18:42.090Z,28.08
2022-10-17T08:21:10.045Z,25.85
2022-10-17T08:23:38.073Z,28.13
2022-10-17T08:26:10.841Z,25.73
2022-10-17T08:28:40.278Z,26.90
2022-10-17T08:31:13.470Z,27.45
2022-10-17T08:33:42.192Z,27.58
2022-10-17T08:36:10.625Z,26.80
2022-10-17T08:38:43.176Z,27.60
2022-10-17T08:41:28.894Z,28.33
2022-10-17T08:44:05.604Z,27.15
2022-10-17T08:46:36.520Z,28.88
2022-10-17T08:49:12.188Z,29.27
2022-10-17T08:51:48.283Z,27.98
2022-10-17T08:54:41.099Z,27.65
2022-10-17T08:57:18.787Z,26.20
2022-10-17T08:59:50.754Z,26.75
2022-10-17T09:02:48.615Z,27.23
2022-10-17T09:05:26.477Z,27.23
2022-10-17T09:08:20.285Z,27.38
2022-10-17T09:10:58.875Z,27.88
2022-10-17T09:13:59.806Z,27.27
2022-10-17T09:16:55.187Z,26.33
2022-10-17T09:19:39.493Z,27.75
2022-10-17T09:22:09.417Z,28.25
2022-10-17T09:24:55.887Z,26.48
2022-10-17T09:27:42.751Z,25.50
2022-10-17T09:30:44.800Z,25.88
2022-10-17T09:33:28.197Z,26.05
2022-10-17T09:36:30.056Z,25.50
2022-10-17T09:39:00.014Z,25.33
2022-10-17T09:41:46.889Z,22.95
2022-10-17T09:44:22.125Z,23.83
2022-10-17T09:46:55.403Z,24.23
2022-10-17T09:49:34.889Z,23.27
2022-10-17T09:52:05.687Z,23.60
2022-10-17T09:54:55.334Z,25.67
2022-10-17T09:57:23.028Z,22.42
2022-10-17T09:59:56.172Z,24.67
2022-10-17T10:02:25.859Z,25.13
2022-10-17T10:05:06.379Z,24.90
2022-10-17T10:07:39.136Z,25.48
2022-10-17T10:10:23.136Z,24.13
2022-10-17T10:13:05.093Z,24.48
2022-10-17T10:15:39.079Z,23.55
2022-10-17T10:18:36.513Z,22.75
2022-10-17T10:21:20.457Z,23.27
2022-10-17T10:24:00.048Z,22.65
2022-10-17T10:26:32.925Z,22.77
2022-10-17T10:29:07.529Z,22.77
2022-10-17T10:31:40.458Z,21.23
2022-10-17T10:34:22.062Z,21.48
2022-10-17T10:36:55.653Z,22.27
2022-10-17T10:39:32.283Z,21.48
2022-10-17T10:42:02.448Z,20.75
2022-10-17T10:44:32.279Z,21.40
2022-10-17T10:47:24.444Z,22.65
2022-10-17T10:50:06.498Z,21.15
2022-10-17T10:52:43.491Z,20.42
2022-10-17T10:55:27.643Z,20.90
2022-10-17T10:58:01.432Z,20.40
2022-10-17T11:00:30.932Z,20.38
2022-10-17T11:03:19.869Z,20.35
2022-10-17T11:05:53.831Z,20.08
2022-10-17T11:08:26.599Z,20.17
2022-10-17T11:11:30.720Z,17.92
2022-10-17T11:14:08.780Z,18.60
2022-10-17T11:16:44.366Z,17.85
2022-10-17T11:19:20.679Z,19.27
2022-10-17T11:22:03.973Z,18.42
2022-10-17T11:24:48.194Z,17.45
2022-10-17T11:27:15.806Z,16.58
2022-10-17T11:29:46.288Z,16.70
2022-10-17T11:32:19.942Z,16.80
2022-10-17T11:34:51.673Z,16.48
2022-10-17T11:37:23.558Z,16.75
2022-10-17T11:40:19.127Z,16.15
2022-10-17T11:42:59.682Z,15.48
2022-10-17T11:45:30.143Z,15.25
2022-10-17T11:48:06.930Z,15.35
2022-10-17T11:53:43.583Z,14.35
2022-10-17T11:56:13.126Z,15.55
2022-10-17T11:58:47.350Z,15.45
2022-10-17T12:01:41.324Z,14.75
2022-10-17T12:04:49.553Z,16.48
2022-10-17T12:07:51.324Z,15.48
2022-10-17T12:10:29.795Z,14.55
2022-10-17T12:12:57.183Z,14.30
2022-10-17T12:15:24.525Z,14.45
2022-10-17T12:18:17.437Z,15.35
2022-10-17T12:20:57.563Z,14.63
2022-10-17T12:23:29.509Z,16.25
2022-10-17T12:26:04.708Z,15.63
2022-10-17T12:28:41.361Z,15.23
2022-10-17T12:31:29.719Z,15.70
2022-10-17T12:34:03.564Z,16.00
2022-10-17T12:36:30.697Z,15.48
2022-10-17T12:39:04.264Z,15.77
2022-10-17T12:41:40.809Z,15.23
2022-10-17T12:44:14.137Z,16.13
2022-10-17T12:46:57.551Z,15.30
2022-10-17T12:49:36.943Z,14.65
2022-10-17T12:52:26.534Z,15.00
2022-10-17T12:55:14.875Z,14.55
2022-10-17T12:57:48.254Z,14.00
2022-10-17T13:00:32.995Z,13.38
2022-10-17T13:03:11.545Z,13.77
2022-10-17T13:05:42.044Z,13.95
2022-10-17T13:08:18.350Z,13.93
2022-10-17T13:10:51.562Z,13.23
2022-10-17T13:13:40.886Z,13.38
2022-10-17T13:16:08.365Z,13.43
2022-10-17T13:18:35.997Z,14.13
2022-10-17T13:21:14.573Z,13.65
2022-10-17T13:23:42.280Z,12.82
2022-10-17T13:26:18.783Z,11.82
2022-10-17T13:28:47.588Z,12.00
2022-10-17T13:31:38.684Z,11.07
2022-10-17T13:34:16.722Z,11.27
2022-10-17T13:36:48.828Z,10.65
2022-10-17T13:39:32.106Z,9.98
2022-10-17T13:42:07.563Z,10.75
2022-10-17T13:44:37.786Z,11.10
2022-10-17T13:47:22.214Z,11.77
2022-10-17T13:49:52.949Z,11.70
2022-10-17T13:52:26.083Z,12.65
2022-10-17T13:54:54.397Z,12.20
2022-10-17T13:57:29.699Z,12.43
2022-10-17T14:00:04.404Z,11.30
2022-10-17T14:02:42.320Z,12.95
2022-10-17T14:05:17.782Z,12.63
2022-10-17T14:08:12.388Z,12.52
2022-10-17T14:10:43.896Z,12.30
2022-10-17T14:13:26.883Z,12.23
2022-10-17T14:16:01.894Z,12.85
2022-10-17T14:18:36.487Z,11.85
2022-10-17T14:24:12.683Z,12.32
2022-10-17T14:26:59.082Z,11.23
2022-10-17T14:29:53.105Z,11.23
2022-10-17T14:32:21.651Z,11.05
2022-10-17T14:34:58.367Z,11.02
2022-10-17T14:37:46.684Z,11.38
2022-10-17T14:40:20.013Z,10.82
2022-10-17T14:42:48.941Z,11.38
2022-10-17T14:45:27.093Z,11.93
2022-10-17T14:47:57.007Z,11.38
2022-10-17T14:50:29.654Z,11.02
2022-10-17T14:53:06.764Z,10.75
2022-10-17T14:55:36.133Z,10.88
2022-10-17T14:58:23.052Z,10.88
2022-10-17T15:00:50.367Z,10.73
2022-10-17T15:03:19.539Z,10.75
2022-10-17T15:05:53.483Z,10.90
2022-10-17T15:08:23.521Z,10.68
2022-10-17T15:10:51.594Z,11.02
2022-10-17T15:13:28.236Z,10.75
2022-10-17T15:15:56.767Z,11.18
2022-10-17T15:18:24.048Z,11.48
2022-10-17T15:20:59.548Z,11.75
2022-10-17T15:23:32.478Z,11.27
2022-10-17T15:25:59.673Z,11.10
2022-10-17T15:28:27.565Z,11.32
2022-10-17T15:30:54.851Z,11.15
2022-10-17T15:33:22.468Z,11.75
2022-10-17T15:35:49.874Z,11.95
2022-10-17T15:38:18.603Z,11.73
2022-10-17T15:40:49.103Z,11.80
2022-10-17T15:43:19.778Z,12.10
2022-10-17T15:45:47.751Z,11.55
2022-10-17T15:48:26.719Z,12.27
2022-10-17T15:50:53.844Z,13.00
2022-10-17T15:53:21.103Z,12.55
2022-10-17T15:55:51.244Z,12.93
2022-10-17T15:58:19.916Z,12.45
2022-10-17T16:00:48.047Z,12.90
2022-10-17T16:03:15.439Z,12.95
2022-10-17T16:05:42.733Z,13.80
2022-10-17T16:08:09.865Z,13.43
2022-10-17T16:10:40.028Z,13.48
2022-10-17T16:13:07.225Z,14.20
2022-10-17T16:15:34.443Z,13.80
2022-10-17T16:18:04.283Z,13.90
2022-10-17T16:20:33.854Z,13.55
2022-10-17T16:23:03.341Z,14.30
2022-10-17T16:25:32.433Z,13.40
2022-10-17T16:28:01.172Z,13.70
2022-10-17T16:30:30.885Z,13.90
2022-10-17T16:32:58.208Z,12.93
2022-10-17T16:35:31.930Z,13.05
2022-10-17T16:38:02.286Z,13.52
2022-10-17T16:40:29.409Z,13.25
2022-10-17T16:42:56.697Z,13.23
2022-10-17T16:45:23.913Z,13.77
2022-10-17T16:47:51.258Z,13.38
2022-10-17T16:50:18.914Z,13.02
2022-10-17T16:52:46.131Z,13.15
2022-10-17T16:55:13.606Z,13.55
2022-10-17T17:00:17.156Z,13.02
2022-10-17T17:02:47.303Z,13.82
2022-10-17T17:05:14.567Z,13.35
2022-10-17T17:07:41.682Z,13.73
2022-10-17T17:10:09.737Z,14.63
2022-10-17T17:12:37.365Z,14.68
2022-10-17T17:15:05.116Z,14.88
2022-10-17T17:17:48.719Z,13.85
2022-10-17T17:20:18.659Z,14.10
2022-10-17T17:22:45.916Z,14.35
2022-10-17T17:25:13.082Z,13.02
2022-10-17T17:27:40.582Z,13.85
2022-10-17T17:30:08.371Z,13.10
2022-10-17T17:32:35.678Z,13.25
2022-10-17T17:35:02.961Z,14.15
2022-10-17T17:37:30.294Z,13.82
2022-10-17T17:39:57.717Z,14.60
2022-10-17T17:42:24.913Z,14.40
2022-10-17T17:44:52.484Z,13.95
2022-10-17T17:47:19.838Z,13.95
2022-10-17T17:49:47.140Z,13.93
2022-10-17T17:52:14.605Z,14.82
2022-10-17T17:54:41.843Z,14.48
2022-10-17T17:57:09.145Z,14.23
2022-10-17T17:59:37.965Z,15.30
2022-10-17T18:02:07.055Z,14.80
2022-10-17T18:04:34.482Z,15.43
2022-10-17T18:07:01.936Z,15.07
2022-10-17T18:09:29.144Z,15.55
2022-10-17T18:11:56.267Z,15.15
2022-10-17T18:14:24.263Z,16.20
2022-10-17T18:16:51.437Z,15.63
2022-10-17T18:19:18.761Z,16.17
2022-10-17T18:21:46.173Z,16.23
2022-10-17T18:24:13.413Z,16.73
2022-10-17T18:26:40.613Z,16.60
2022-10-17T18:29:07.788Z,17.15
2022-10-17T18:31:37.555Z,17.13
2022-10-17T18:34:05.893Z,16.85
2022-10-17T18:36:34.845Z,16.02
2022-10-17T18:39:03.073Z,16.90
2022-10-17T18:41:31.317Z,15.65
2022-10-17T18:43:58.622Z,16.60
2022-10-17T18:46:32.662Z,16.23
2022-10-17T18:48:59.900Z,15.88
2022-10-17T18:51:27.865Z,15.90
2022-10-17T18:53:58.873Z,16.42
2022-10-17T18:56:26.725Z,16.42
2022-10-17T18:58:54.196Z,16.45
2022-10-17T19:01:24.563Z,16.70
2022-10-17T19:03:54.075Z,17.25
2022-10-17T19:06:24.347Z,15.70
2022-10-17T19:08:51.445Z,15.82
2022-10-17T19:11:24.657Z,16.30
2022-10-17T19:13:53.048Z,15.48
2022-10-17T19:16:31.926Z,16.33
2022-10-17T19:19:02.324Z,15.68
2022-10-17T19:24:00.059Z,16.33
2022-10-17T19:26:29.035Z,15.45
2022-10-17T19:28:56.906Z,16.08
2022-10-17T19:31:27.074Z,16.58
2022-10-17T19:33:57.015Z,15.55
2022-10-17T19:36:30.463Z,15.77
2022-10-17T19:39:06.134Z,16.98
2022-10-17T19:41:34.127Z,16.23
2022-10-17T19:44:01.507Z,15.80
2022-10-17T19:46:30.198Z,15.43
2022-10-17T19:48:57.615Z,16.65
2022-10-17T19:51:26.005Z,16.58
2022-10-17T19:53:55.244Z,16.20
2022-10-17T19:56:24.491Z,16.27
2022-10-17T19:58:52.612Z,16.70
2022-10-17T20:01:25.870Z,16.00
2022-10-17T20:03:54.104Z,17.02
2022-10-17T20:06:22.258Z,15.95
2022-10-17T20:08:50.202Z,17.63
2022-10-17T20:11:23.666Z,16.33
2022-10-17T20:13:51.753Z,18.00
2022-10-17T20:16:22.257Z,17.33
2022-10-17T20:18:51.422Z,17.50
2022-10-17T20:21:25.223Z,17.52
2022-10-17T20:23:52.418Z,17.88
2022-10-17T20:26:33.528Z,18.15
2022-10-17T20:29:09.053Z,18.30
2022-10-17T20:31:36.717Z,19.17
2022-10-17T20:34:04.425Z,18.92
2022-10-17T20:36:32.644Z,18.95
2022-10-17T20:39:00.087Z,19.45
2022-10-17T20:41:27.386Z,19.35
2022-10-17T20:43:55.964Z,18.85
2022-10-17T20:46:36.243Z,19.00
2022-10-17T20:49:06.384Z,19.58
2022-10-17T20:51:34.944Z,19.42
2022-10-17T20:54:03.173Z,18.95
2022-10-17T20:56:32.291Z,19.63
2022-10-17T20:59:06.332Z,20.90
2022-10-17T21:01:35.869Z,21.48
2022-10-17T21:04:27.075Z,19.20
2022-10-17T21:06:52.457Z,20.33
2022-10-17T21:09:20.777Z,20.58
2022-10-17T21:11:51.432Z,19.00
2022-10-17T21:14:19.203Z,21.02
2022-10-17T21:16:46.485Z,19.63
2022-10-17T21:19:14.797Z,20.50
2022-10-17T21:21:44.604Z,19.85
2022-10-17T21:24:14.538Z,19.25
2022-10-17T21:26:43.002Z,20.00
2022-10-17T21:29:10.985Z,20.13
2022-10-17T21:31:40.793Z,19.05
2022-10-17T21:34:13.144Z,19.33
2022-10-17T21:36:40.374Z,19.67
2022-10-17T21:41:35.205Z,19.30
2022-10-17T21:44:05.537Z,19.83
2022-10-17T21:49:01.312Z,19.52
2022-10-17T21:51:29.001Z,20.15
2022-10-17T21:53:57.426Z,20.48
2022-10-17T21:56:30.919Z,19.88
2022-10-17T21:58:59.113Z,20.13
2022-10-17T22:01:32.006Z,19.73
2022-10-17T22:04:01.518Z,19.58
2022-10-17T22:06:39.840Z,19.23
2022-10-17T22:09:13.131Z,20.17
2022-10-17T22:11:41.796Z,19.25
2022-10-17T22:14:13.125Z,20.90
2022-10-17T22:16:41.291Z,20.85
2022-10-17T22:19:09.466Z,21.17
2022-10-17T22:21:37.823Z,20.83
2022-10-17T22:24:08.172Z,21.08
2022-10-17T22:29:04.744Z,20.02
2022-10-17T22:31:31.907Z,20.73
2022-10-17T22:33:59.060Z,21.02
2022-10-17T22:36:26.567Z,20.33
2022-10-17T22:38:53.749Z,21.25
2022-10-17T22:41:21.236Z,20.80
2022-10-17T22:43:48.474Z,20.83
2022-10-17T22:46:17.325Z,20.83
2022-10-17T22:48:44.812Z,21.80
2022-10-17T22:51:12.290Z,19.80
2022-10-17T22:53:39.942Z,19.92
2022-10-17T22:56:12.336Z,21.10
2022-10-17T22:58:39.916Z,20.08
2022-10-17T23:01:08.967Z,21.33
2022-10-17T23:03:36.536Z,22.20
2022-10-17T23:06:03.877Z,20.92
2022-10-17T23:08:31.582Z,20.48
2022-10-17T23:10:58.971Z,21.50
2022-10-17T23:13:26.358Z,20.48
2022-10-17T23:15:55.573Z,22.00
2022-10-17T23:18:23.802Z,21.85
2022-10-17T23:20:51.652Z,22.27
2022-10-17T23:23:19.748Z,21.83
2022-10-17T23:25:47.393Z,21.30
2022-10-17T23:28:14.504Z,21.63
2022-10-17T23:30:42.053Z,21.48
2022-10-17T23:33:12.167Z,22.88
2022-10-17T23:35:40.055Z,22.17
2022-10-17T23:38:07.323Z,21.88
2022-10-17T23:40:35.587Z,21.10
2022-10-17T23:43:03.664Z,22.65
2022-10-17T23:45:36.044Z,22.17
2022-10-17T23:48:05.573Z,21.98
2022-10-17T23:50:32.709Z,22.63
2022-10-17T23:52:59.906Z,23.40
2022-10-17T23:55:27.232Z,21.92
2022-10-17T23:57:54.576Z,22.67
